Time;durP1;ratioP1;P1;durP2;ratioP2;P2;SDS_P1;SDS_P2;PMS_P1;PMS_P2;Temp;Humidity;BMP_temperature;BMP_pressure;BME280_temperature;BME280_humidity;BME280_pressure;Samples;Min_cycle;Max_cycle;Signal;HPM_P1;HPM_P2
2023/08/17 00:00:13;;;;;;;2.58;1.20;;;15.90;99.90;;;;;;4819278;29;20124;-89
2023/08/17 00:02:40;;;;;;;4.03;1.40;;;15.90;99.90;;;;;;4829167;29;20393;-87
2023/08/17 00:05:06;;;;;;;2.90;1.13;;;15.90;99.90;;;;;;4812611;29;20049;-87
2023/08/17 00:07:32;;;;;;;1.50;1.07;;;15.90;99.90;;;;;;4865451;29;20124;-91
2023/08/17 00:09:58;;;;;;;1.95;1.27;;;15.90;99.90;;;;;;4816271;29;20044;-86
2023/08/17 00:12:25;;;;;;;2.85;1.55;;;15.80;99.90;;;;;;4842880;29;20056;-85
2023/08/17 00:14:51;;;;;;;4.53;1.48;;;15.80;99.90;;;;;;4815555;29;20049;-85
2023/08/17 00:17:17;;;;;;;3.70;1.70;;;15.80;99.90;;;;;;4844032;29;20045;-86
2023/08/17 00:19:43;;;;;;;2.53;1.52;;;15.80;99.90;;;;;;4812906;29;20046;-87
2023/08/17 00:22:08;;;;;;;4.40;2.13;;;15.80;99.90;;;;;;4829676;29;20105;-87
2023/08/17 00:24:34;;;;;;;2.30;1.60;;;15.80;99.90;;;;;;4827493;29;20068;-87
2023/08/17 00:27:00;;;;;;;2.95;1.55;;;15.80;99.90;;;;;;4811596;29;20055;-89
2023/08/17 00:29:25;;;;;;;2.83;1.60;;;15.80;99.90;;;;;;4810564;29;20053;-85
2023/08/17 00:31:52;;;;;;;4.38;1.88;;;15.80;99.90;;;;;;4794778;29;20058;-86
2023/08/17 00:34:18;;;;;;;2.97;1.90;;;15.80;99.90;;;;;;4825865;29;20121;-87
2023/08/17 00:36:44;;;;;;;2.40;1.50;;;15.70;99.90;;;;;;4813064;29;20080;-86
2023/08/17 00:39:10;;;;;;;2.40;1.40;;;15.70;99.90;;;;;;4807209;29;20076;-87
2023/08/17 00:41:35;;;;;;;2.50;1.45;;;15.70;99.90;;;;;;4830868;29;20481;-87
2023/08/17 00:44:01;;;;;;;2.83;1.35;;;15.70;99.90;;;;;;4800532;29;20107;-87
2023/08/17 00:46:27;;;;;;;3.47;1.55;;;15.70;99.90;;;;;;4842998;29;20088;-86
2023/08/17 00:48:58;;;;;;;4.93;1.77;;;15.70;99.90;;;;;;4813598;29;20045;-85
2023/08/17 00:51:24;;;;;;;3.28;1.80;;;15.70;99.90;;;;;;4807138;29;20042;-87
2023/08/17 00:53:57;;;;;;;2.50;1.60;;;15.70;99.90;;;;;;4820137;29;20504;-84
2023/08/17 00:56:23;;;;;;;2.92;1.40;;;15.70;99.90;;;;;;4830847;29;20044;-86
2023/08/17 00:58:50;;;;;;;2.65;1.40;;;15.70;99.90;;;;;;4798382;29;20049;-93
2023/08/17 01:01:16;;;;;;;4.28;1.20;;;15.70;99.90;;;;;;4828570;29;20068;-85
2023/08/17 01:03:42;;;;;;;3.20;1.27;;;15.70;99.90;;;;;;4826980;29;20049;-86
2023/08/17 01:06:09;;;;;;;2.60;1.30;;;15.70;99.90;;;;;;4834287;29;20049;-86
2023/08/17 01:08:36;;;;;;;3.85;1.17;;;15.70;99.90;;;;;;4830014;29;20045;-87
2023/08/17 01:11:28;;;;;;;4.13;1.70;;;15.60;99.90;;;;;;4816657;29;20053;-87
2023/08/17 01:14:05;;;;;;;3.00;1.30;;;15.60;99.90;;;;;;4826614;29;20049;-87
2023/08/17 01:16:49;;;;;;;3.33;1.20;;;15.60;99.90;;;;;;4843024;29;20049;-86
2023/08/17 01:19:26;;;;;;;2.22;1.20;;;15.70;99.90;;;;;;4829434;29;20489;-88
2023/08/17 01:22:00;;;;;;;3.90;1.10;;;15.60;99.90;;;;;;4836944;29;20073;-93
2023/08/17 01:24:26;;;;;;;2.45;1.60;;;15.60;99.90;;;;;;4830188;29;20129;-93
2023/08/17 01:26:52;;;;;;;2.63;1.50;;;15.50;99.90;;;;;;4798788;29;20136;-86
2023/08/17 01:29:18;;;;;;;4.25;1.70;;;15.50;99.90;;;;;;4817693;29;20049;-86
2023/08/17 01:32:04;;;;;;;2.40;1.38;;;15.40;99.90;;;;;;4798034;29;20123;-87
2023/08/17 01:34:35;;;;;;;3.92;1.50;;;15.40;99.90;;;;;;4828720;29;20050;-85
2023/08/17 01:37:02;;;;;;;1.83;1.50;;;15.40;99.90;;;;;;4831443;29;20049;-86
2023/08/17 01:39:43;;;;;;;3.38;1.75;;;15.30;99.90;;;;;;4839143;29;20041;-86
2023/08/17 01:42:12;;;;;;;3.63;1.58;;;15.30;99.90;;;;;;4834001;29;20050;-87
2023/08/17 01:44:39;;;;;;;3.10;1.35;;;15.30;99.90;;;;;;4828479;29;20449;-88
2023/08/17 01:47:05;;;;;;;4.30;1.70;;;15.30;99.90;;;;;;4809648;29;20060;-87
2023/08/17 01:49:30;;;;;;;3.97;1.77;;;15.20;99.90;;;;;;4844504;29;20057;-90
2023/08/17 01:51:57;;;;;;;3.80;1.95;;;15.20;99.90;;;;;;4846023;29;21586;-91
2023/08/17 01:54:23;;;;;;;2.40;1.43;;;15.10;99.90;;;;;;4831668;29;20650;-88
2023/08/17 01:56:49;;;;;;;4.50;1.75;;;15.10;99.90;;;;;;4817941;29;20045;-89
2023/08/17 01:59:15;;;;;;;3.92;1.70;;;15.10;99.90;;;;;;4831863;29;20056;-90
2023/08/17 02:01:40;;;;;;;4.72;1.77;;;15.10;99.90;;;;;;4833680;29;20037;-87
2023/08/17 02:04:06;;;;;;;3.88;2.03;;;15.10;99.90;;;;;;4837904;29;20048;-91
2023/08/17 02:06:32;;;;;;;4.53;1.70;;;15.20;99.90;;;;;;4804821;29;20037;-88
2023/08/17 02:08:59;;;;;;;2.80;1.40;;;15.20;99.90;;;;;;4844748;29;20133;-87
2023/08/17 02:11:24;;;;;;;4.68;1.90;;;15.20;99.90;;;;;;4831290;29;20116;-88
2023/08/17 02:13:50;;;;;;;1.80;1.45;;;15.20;99.90;;;;;;4837276;29;20057;-88
2023/08/17 02:16:16;;;;;;;3.80;1.73;;;15.20;99.90;;;;;;4838979;29;20045;-87
2023/08/17 02:18:41;;;;;;;5.53;1.52;;;15.30;99.90;;;;;;4836929;29;20041;-86
2023/08/17 02:21:09;;;;;;;2.92;1.70;;;15.30;99.90;;;;;;4803776;29;20037;-86
2023/08/17 02:23:34;;;;;;;3.25;1.52;;;15.30;99.90;;;;;;4848497;29;20042;-86
2023/08/17 02:26:00;;;;;;;3.92;1.60;;;15.20;99.90;;;;;;4822257;29;20044;-85
2023/08/17 02:28:26;;;;;;;3.40;1.58;;;15.20;99.90;;;;;;4830046;29;20044;-87
2023/08/17 02:30:56;;;;;;;3.17;1.80;;;15.20;99.90;;;;;;4797537;29;20135;-86
2023/08/17 02:33:22;;;;;;;4.75;1.55;;;15.20;99.90;;;;;;4838853;29;20052;-88
2023/08/17 02:35:51;;;;;;;2.83;1.67;;;15.20;99.90;;;;;;4831678;29;20049;-88
2023/08/17 02:38:17;;;;;;;2.97;1.50;;;15.10;99.90;;;;;;4834970;29;20069;-91
2023/08/17 02:40:43;;;;;;;4.25;1.90;;;15.10;99.90;;;;;;4820424;29;20044;-87
2023/08/17 02:43:09;;;;;;;4.57;1.33;;;15.10;99.90;;;;;;4851959;29;20045;-87
2023/08/17 02:45:35;;;;;;;2.53;1.23;;;15.10;99.90;;;;;;4853355;29;20046;-93
2023/08/17 02:48:01;;;;;;;3.20;1.40;;;15.10;99.90;;;;;;4819338;29;20416;-87
2023/08/17 02:50:27;;;;;;;2.08;1.40;;;15.10;99.90;;;;;;4856238;29;20413;-87
2023/08/17 02:52:52;;;;;;;2.03;1.25;;;15.10;99.90;;;;;;4830895;29;20053;-90
2023/08/17 02:55:18;;;;;;;2.83;1.55;;;15.10;99.90;;;;;;4807677;29;20056;-86
2023/08/17 02:57:44;;;;;;;3.85;1.80;;;15.20;99.90;;;;;;4828077;29;20050;-87
2023/08/17 03:00:10;;;;;;;3.78;1.48;;;15.20;99.90;;;;;;4835992;29;20055;-89
2023/08/17 03:02:36;;;;;;;2.70;1.30;;;15.20;99.90;;;;;;4844498;29;20048;-89
2023/08/17 03:05:02;;;;;;;2.78;1.00;;;15.30;99.90;;;;;;4831422;29;20045;-90
2023/08/17 03:07:28;;;;;;;4.30;1.67;;;15.30;99.90;;;;;;4807388;29;20037;-87
2023/08/17 03:09:54;;;;;;;3.78;1.50;;;15.30;99.90;;;;;;4835916;29;20186;-91
2023/08/17 03:12:19;;;;;;;2.03;1.02;;;15.30;99.90;;;;;;4817774;29;20045;-89
2023/08/17 03:14:45;;;;;;;2.08;1.08;;;15.40;99.90;;;;;;4828016;29;20084;-92
2023/08/17 03:17:11;;;;;;;3.58;1.08;;;15.40;99.90;;;;;;4811801;29;20042;-87
2023/08/17 03:19:37;;;;;;;3.55;1.33;;;15.40;99.90;;;;;;4830649;29;20107;-87
2023/08/17 03:22:03;;;;;;;3.15;1.10;;;15.40;99.90;;;;;;4841441;29;20496;-88
2023/08/17 03:24:28;;;;;;;2.13;1.35;;;15.30;99.90;;;;;;4847709;29;20072;-88
2023/08/17 03:26:54;;;;;;;2.10;1.20;;;15.30;99.90;;;;;;4829779;29;20105;-89
2023/08/17 03:29:20;;;;;;;4.75;1.27;;;15.30;99.90;;;;;;4817600;29;20053;-91
2023/08/17 03:31:46;;;;;;;3.78;1.17;;;15.30;99.90;;;;;;4799018;29;20037;-88
2023/08/17 03:34:11;;;;;;;2.47;1.25;;;15.30;99.90;;;;;;4811293;29;20692;-88
2023/08/17 03:36:37;;;;;;;1.58;1.00;;;15.30;99.90;;;;;;4814668;29;20045;-88
2023/08/17 03:39:03;;;;;;;3.45;1.05;;;15.30;99.90;;;;;;4832824;29;20077;-89
2023/08/17 03:41:30;;;;;;;2.25;1.15;;;15.30;99.90;;;;;;4845069;29;20048;-89
2023/08/17 03:43:55;;;;;;;3.03;1.02;;;15.20;99.90;;;;;;4814789;29;20064;-90
2023/08/17 03:46:21;;;;;;;2.97;0.88;;;15.20;99.90;;;;;;4837149;29;20173;-87
2023/08/17 03:48:47;;;;;;;2.40;0.90;;;15.20;99.90;;;;;;4828523;29;20064;-90
2023/08/17 03:51:12;;;;;;;3.97;1.33;;;15.20;99.90;;;;;;4843070;29;20059;-89
2023/08/17 03:53:38;;;;;;;3.17;1.13;;;15.20;99.90;;;;;;4825480;29;20049;-90
2023/08/17 03:56:04;;;;;;;4.03;1.20;;;15.20;99.90;;;;;;4848923;29;20041;-88
2023/08/17 03:58:34;;;;;;;2.33;1.08;;;15.20;99.90;;;;;;4837004;29;20057;-87
2023/08/17 04:01:00;;;;;;;1.20;0.75;;;15.20;99.90;;;;;;4828979;29;20060;-88
2023/08/17 04:03:25;;;;;;;4.57;1.23;;;15.20;99.90;;;;;;4833822;29;20046;-88
2023/08/17 04:05:51;;;;;;;4.45;1.52;;;15.30;99.90;;;;;;4828023;29;20051;-87
2023/08/17 04:08:17;;;;;;;2.90;1.00;;;15.30;99.90;;;;;;4835418;29;20129;-87
2023/08/17 04:10:43;;;;;;;3.20;1.27;;;15.20;99.90;;;;;;4832781;29;20549;-86
2023/08/17 04:13:08;;;;;;;4.03;1.75;;;15.20;99.90;;;;;;4831382;29;20509;-89
2023/08/17 04:15:34;;;;;;;3.28;1.10;;;15.20;99.90;;;;;;4832255;29;20052;-87
2023/08/17 04:18:00;;;;;;;2.80;0.88;;;15.20;99.90;;;;;;4816693;29;20045;-90
2023/08/17 04:20:25;;;;;;;4.22;1.40;;;15.20;99.90;;;;;;4835937;29;20609;-89
2023/08/17 04:22:51;;;;;;;3.83;1.10;;;15.10;99.90;;;;;;4828290;29;20049;-86
2023/08/17 04:25:17;;;;;;;2.70;1.00;;;15.10;99.90;;;;;;4812247;29;20056;-89
2023/08/17 04:27:43;;;;;;;3.85;1.20;;;15.10;99.90;;;;;;4836594;29;20101;-89
2023/08/17 04:30:09;;;;;;;2.03;0.85;;;15.10;99.90;;;;;;4838274;29;20057;-88
2023/08/17 04:32:35;;;;;;;1.75;1.08;;;15.10;99.90;;;;;;4814386;29;20049;-87
2023/08/17 04:35:01;;;;;;;3.58;0.90;;;15.10;99.90;;;;;;4850185;29;20457;-89
2023/08/17 04:37:27;;;;;;;2.85;1.00;;;15.20;99.90;;;;;;4817301;29;20076;-91
2023/08/17 04:39:53;;;;;;;3.13;0.90;;;15.20;99.90;;;;;;4850787;29;20124;-90
2023/08/17 04:42:19;;;;;;;2.60;1.05;;;15.20;99.90;;;;;;4839629;29;20049;-87
2023/08/17 04:44:45;;;;;;;2.00;0.82;;;15.20;99.90;;;;;;4824401;29;20406;-90
2023/08/17 04:47:11;;;;;;;3.42;1.30;;;15.20;99.90;;;;;;4842957;29;20075;-86
2023/08/17 04:49:37;;;;;;;4.15;0.90;;;15.20;99.90;;;;;;4837884;29;20068;-88
2023/08/17 04:52:03;;;;;;;1.83;1.02;;;15.20;99.90;;;;;;4830467;29;20549;-88
2023/08/17 04:54:29;;;;;;;1.50;0.87;;;15.20;99.90;;;;;;4830444;29;20137;-91
2023/08/17 04:56:55;;;;;;;3.40;1.00;;;15.20;99.90;;;;;;4843665;29;20109;-91
2023/08/17 04:59:20;;;;;;;2.00;0.88;;;15.30;99.90;;;;;;4828433;29;20129;-91
2023/08/17 05:01:46;;;;;;;3.35;1.00;;;15.30;99.90;;;;;;4830067;29;20105;-91
2023/08/17 05:04:12;;;;;;;5.03;1.13;;;15.30;99.90;;;;;;4840730;29;20044;-86
2023/08/17 05:06:38;;;;;;;1.98;0.93;;;15.30;99.90;;;;;;4831385;29;20037;-87
2023/08/17 05:09:04;;;;;;;3.38;1.10;;;15.20;99.90;;;;;;4823919;29;20132;-85
2023/08/17 05:11:31;;;;;;;4.20;1.10;;;15.20;99.90;;;;;;4855215;29;20045;-87
2023/08/17 05:13:57;;;;;;;5.72;1.10;;;15.20;99.90;;;;;;4811038;29;20098;-86
2023/08/17 05:16:23;;;;;;;6.43;1.40;;;15.20;99.90;;;;;;4840805;29;20053;-87
2023/08/17 05:18:48;;;;;;;5.57;1.10;;;15.20;99.90;;;;;;4828983;29;20565;-86
2023/08/17 05:21:14;;;;;;;3.50;1.50;;;15.30;99.90;;;;;;4837930;29;20049;-86
2023/08/17 05:23:40;;;;;;;2.85;1.15;;;15.30;99.90;;;;;;4829449;29;20045;-87
2023/08/17 05:26:05;;;;;;;2.20;1.00;;;15.50;99.90;;;;;;4810478;29;20166;-90
2023/08/17 05:28:31;;;;;;;3.15;1.00;;;15.90;99.90;;;;;;4829432;29;20038;-91
2023/08/17 05:31:06;;;;;;;1.50;0.88;;;16.20;99.90;;;;;;4809971;29;20053;-87
2023/08/17 05:33:32;;;;;;;3.35;1.02;;;16.70;99.90;;;;;;4832351;29;20402;-86
2023/08/17 05:35:57;;;;;;;1.40;0.90;;;17.00;99.90;;;;;;4817913;29;20041;-87
2023/08/17 05:38:23;;;;;;;2.92;0.98;;;17.30;99.90;;;;;;4833074;29;20044;-88
2023/08/17 05:40:57;;;;;;;1.88;1.10;;;17.40;99.90;;;;;;4853719;29;20045;-89
2023/08/17 05:43:23;;;;;;;2.83;1.27;;;17.50;99.90;;;;;;4827667;29;20041;-87
2023/08/17 05:45:49;;;;;;;3.22;1.00;;;17.60;99.90;;;;;;4813054;29;20053;-89
2023/08/17 05:48:15;;;;;;;2.20;1.00;;;17.70;99.90;;;;;;4825863;29;20418;-89
2023/08/17 05:50:42;;;;;;;2.60;0.80;;;17.80;99.90;;;;;;4846368;29;20045;-90
2023/08/17 05:53:08;;;;;;;2.40;0.82;;;18.00;99.90;;;;;;4853620;29;20512;-86
2023/08/17 05:55:33;;;;;;;1.38;0.70;;;18.20;99.90;;;;;;4815101;29;20073;-87
2023/08/17 05:57:59;;;;;;;2.38;1.00;;;18.70;99.90;;;;;;4829336;29;20084;-87
2023/08/17 06:00:25;;;;;;;3.92;0.82;;;19.00;99.90;;;;;;4846260;29;20046;-90
2023/08/17 06:02:51;;;;;;;3.63;0.90;;;19.50;99.90;;;;;;4843916;29;20406;-91
2023/08/17 06:05:25;;;;;;;2.92;0.70;;;20.30;99.90;;;;;;4836037;29;20069;-86
2023/08/17 06:07:50;;;;;;;4.20;0.80;;;21.00;99.90;;;;;;4813413;29;20042;-89
2023/08/17 06:10:16;;;;;;;1.63;0.70;;;21.50;99.90;;;;;;4801242;29;20052;-87
2023/08/17 06:12:42;;;;;;;3.38;0.80;;;21.90;99.90;;;;;;4830761;29;20041;-89
2023/08/17 06:15:08;;;;;;;4.18;0.85;;;21.90;99.90;;;;;;4830821;29;20500;-86
2023/08/17 06:17:34;;;;;;;3.03;0.70;;;22.00;99.90;;;;;;4816015;29;20045;-88
2023/08/17 06:19:59;;;;;;;2.72;0.75;;;22.50;99.90;;;;;;4831000;29;20475;-91
2023/08/17 06:22:25;;;;;;;1.83;0.65;;;23.00;99.90;;;;;;4816333;29;20125;-86
2023/08/17 06:24:51;;;;;;;1.17;0.52;;;23.40;99.90;;;;;;4827238;29;20056;-89
2023/08/17 06:27:17;;;;;;;5.93;0.88;;;23.90;99.90;;;;;;4840206;29;20053;-91
2023/08/17 06:29:43;;;;;;;3.97;0.80;;;24.30;99.90;;;;;;4815898;29;20050;-88
2023/08/17 06:32:09;;;;;;;3.92;0.88;;;24.50;99.90;;;;;;4849097;29;20067;-89
2023/08/17 06:34:35;;;;;;;2.33;0.70;;;24.80;99.90;;;;;;4830071;29;20052;-90
2023/08/17 06:37:03;;;;;;;1.80;0.70;;;25.10;99.90;;;;;;4855364;29;21061;-89
2023/08/17 06:39:29;;;;;;;1.38;0.60;;;25.10;99.90;;;;;;4847418;29;20049;-92
2023/08/17 06:41:55;;;;;;;3.20;0.70;;;24.60;99.90;;;;;;4804485;29;20521;-91
2023/08/17 06:44:21;;;;;;;3.83;0.60;;;24.10;99.90;;;;;;4829556;29;20692;-87
2023/08/17 06:46:47;;;;;;;3.00;0.68;;;23.80;99.90;;;;;;4838912;29;20046;-90
2023/08/17 06:49:13;;;;;;;2.17;0.70;;;23.60;99.90;;;;;;4822707;29;20125;-84
2023/08/17 06:51:39;;;;;;;1.48;0.52;;;23.50;99.90;;;;;;4830310;29;20502;-87
2023/08/17 06:54:07;;;;;;;2.63;0.68;;;23.60;99.90;;;;;;4834812;29;20067;-89
2023/08/17 06:56:33;;;;;;;1.85;0.50;;;23.90;99.90;;;;;;4837244;29;20398;-91
2023/08/17 06:58:58;;;;;;;1.37;0.40;;;24.10;99.90;;;;;;4814580;29;20120;-83
2023/08/17 07:01:24;;;;;;;3.17;0.70;;;23.90;99.90;;;;;;4827506;29;20073;-89
2023/08/17 07:03:50;;;;;;;2.03;0.60;;;23.60;99.90;;;;;;4814923;29;20042;-85
2023/08/17 07:06:16;;;;;;;2.00;0.80;;;23.20;99.90;;;;;;4842313;29;20104;-87
2023/08/17 07:08:41;;;;;;;1.90;0.70;;;22.50;99.90;;;;;;4858223;29;20041;-83
2023/08/17 07:11:08;;;;;;;2.93;0.53;;;21.90;99.90;;;;;;4829429;29;20042;-85
2023/08/17 07:13:34;;;;;;;;;;;21.10;99.90;;;;;;4833354;29;20082;-86
2023/08/17 07:15:59;;;;;;;1.83;0.47;;;20.50;99.90;;;;;;4840350;29;20514;-90
2023/08/17 07:18:25;;;;;;;3.50;0.50;;;20.10;99.90;;;;;;4845926;29;20124;-88
2023/08/17 07:20:51;;;;;;;3.13;0.70;;;19.80;99.90;;;;;;4811726;29;20586;-86
2023/08/17 07:23:16;;;;;;;1.08;0.35;;;19.60;99.90;;;;;;4845623;29;20052;-86
2023/08/17 07:25:42;;;;;;;3.97;0.60;;;19.50;99.90;;;;;;4829387;29;20042;-85
2023/08/17 07:28:08;;;;;;;1.67;0.60;;;19.30;99.90;;;;;;4800180;29;20080;-92
2023/08/17 07:30:34;;;;;;;2.58;0.60;;;19.20;99.90;;;;;;4804769;29;20101;-86
2023/08/17 07:32:59;;;;;;;3.28;0.70;;;19.10;99.90;;;;;;4836582;29;20445;-87
2023/08/17 07:35:25;;;;;;;1.35;0.50;;;18.90;99.90;;;;;;4805438;29;20061;-91
2023/08/17 07:37:51;;;;;;;2.00;0.60;;;18.80;99.90;;;;;;4844738;29;20116;-87
2023/08/17 07:40:16;;;;;;;2.90;0.68;;;18.80;99.90;;;;;;4829673;29;20105;-87
2023/08/17 07:42:42;;;;;;;5.68;1.75;;;18.70;99.90;;;;;;4845448;29;20421;-91
2023/08/17 07:45:08;;;;;;;1.65;0.52;;;18.70;99.90;;;;;;4842110;29;20046;-90
2023/08/17 07:47:37;;;;;;;2.17;0.50;;;18.60;99.90;;;;;;4829553;29;20081;-93
2023/08/17 07:50:04;;;;;;;3.35;0.60;;;18.70;99.90;;;;;;4827482;29;20104;-88
2023/08/17 07:52:30;;;;;;;;;;;18.70;99.90;;;;;;4815858;29;20509;-93
2023/08/17 07:54:56;;;;;;;1.30;0.57;;;18.60;99.90;;;;;;4838914;29;19928;-92
2023/08/17 07:57:22;;;;;;;3.10;0.57;;;18.60;99.90;;;;;;4836430;29;20520;-86
2023/08/17 07:59:47;;;;;;;4.13;0.75;;;18.50;99.90;;;;;;4847818;29;20068;-86
2023/08/17 08:02:13;;;;;;;1.75;0.55;;;18.50;99.90;;;;;;4830498;29;20450;-84
2023/08/17 08:04:39;;;;;;;1.80;0.68;;;18.50;99.90;;;;;;4830254;29;20052;-86
2023/08/17 08:07:05;;;;;;;4.32;0.75;;;18.60;99.90;;;;;;4850293;29;20053;-87
2023/08/17 08:09:31;;;;;;;1.13;0.45;;;18.60;99.90;;;;;;4840246;29;20129;-92
2023/08/17 08:11:57;;;;;;;1.85;0.88;;;18.70;99.90;;;;;;4792352;29;20513;-90
2023/08/17 08:14:22;;;;;;;5.10;0.73;;;18.60;99.90;;;;;;4799129;29;20081;-87
2023/08/17 08:16:48;;;;;;;1.65;0.50;;;18.60;99.90;;;;;;4828832;29;20044;-89
2023/08/17 08:19:14;;;;;;;4.13;0.80;;;18.40;99.90;;;;;;4850714;29;20040;-89
2023/08/17 08:21:39;;;;;;;2.08;0.60;;;18.40;99.90;;;;;;4846341;29;20050;-88
2023/08/17 08:24:05;;;;;;;2.63;0.68;;;18.20;99.90;;;;;;4828429;29;20056;-91
2023/08/17 08:26:31;;;;;;;3.03;0.40;;;18.10;99.90;;;;;;4835361;29;20053;-83
2023/08/17 08:28:57;;;;;;;2.17;0.50;;;18.00;99.90;;;;;;4815976;29;20466;-92
2023/08/17 08:31:22;;;;;;;1.85;0.55;;;18.00;99.90;;;;;;4844877;29;20053;-89
2023/08/17 08:33:48;;;;;;;2.35;0.70;;;17.90;99.90;;;;;;4821894;29;20093;-91
2023/08/17 08:36:14;;;;;;;1.95;0.60;;;17.90;99.90;;;;;;4827459;29;20038;-90
2023/08/17 08:38:39;;;;;;;1.60;0.57;;;17.90;99.90;;;;;;4842359;29;20451;-84
2023/08/17 08:41:08;;;;;;;2.55;0.77;;;17.90;99.90;;;;;;4835198;29;20508;-87
2023/08/17 08:43:34;;;;;;;2.60;0.70;;;17.90;99.90;;;;;;4829251;29;20048;-88
2023/08/17 08:46:00;;;;;;;1.98;0.45;;;17.90;99.90;;;;;;4810213;29;20046;-84
2023/08/17 08:48:27;;;;;;;1.48;0.50;;;18.10;99.90;;;;;;4809024;29;20468;-89
2023/08/17 08:50:56;;;;;;;2.42;0.57;;;18.10;99.90;;;;;;4828284;29;20132;-85
2023/08/17 08:53:32;;;;;;;1.48;0.50;;;18.30;99.90;;;;;;4826482;29;20108;-85
2023/08/17 08:56:00;;;;;;;2.55;0.43;;;18.50;99.90;;;;;;4837115;29;20071;-91
2023/08/17 08:58:27;;;;;;;3.22;0.50;;;18.70;99.90;;;;;;4826657;29;20121;-85
2023/08/17 09:00:53;;;;;;;;;;;18.80;99.90;;;;;;4824410;29;20069;-88
2023/08/17 09:03:21;;;;;;;1.92;0.50;;;18.80;99.90;;;;;;4825740;29;19920;-86
2023/08/17 09:05:50;;;;;;;;;;;18.90;99.90;;;;;;4832082;29;20050;-88
2023/08/17 09:08:20;;;;;;;3.13;0.55;;;18.90;99.90;;;;;;4828119;29;19947;-83
2023/08/17 09:10:47;;;;;;;2.65;0.63;;;18.90;99.90;;;;;;4837742;29;20378;-89
2023/08/17 09:13:12;;;;;;;1.40;0.30;;;19.00;99.90;;;;;;4811635;29;20037;-90
2023/08/17 09:15:38;;;;;;;1.70;0.57;;;19.10;99.90;;;;;;4820297;29;20045;-90
2023/08/17 09:18:07;;;;;;;2.53;0.70;;;19.30;99.90;;;;;;4833333;29;20063;-87
2023/08/17 09:20:47;;;;;;;3.22;0.93;;;19.40;99.90;;;;;;4831254;29;20133;-87
2023/08/17 09:23:15;;;;;;;2.50;0.55;;;19.70;99.90;;;;;;4821639;29;20038;-89
2023/08/17 09:25:42;;;;;;;2.55;0.80;;;19.80;99.90;;;;;;4832044;29;20034;-88
2023/08/17 09:28:12;;;;;;;;;;;19.90;99.90;;;;;;4833496;29;20128;-91
2023/08/17 09:31:03;;;;;;;2.95;0.50;;;20.00;99.90;;;;;;4832617;29;19943;-88
2023/08/17 09:33:32;;;;;;;1.65;0.55;;;20.00;99.90;;;;;;4831119;29;20096;-90
2023/08/17 09:35:59;;;;;;;2.47;0.63;;;20.00;99.90;;;;;;4830158;29;20038;-81
2023/08/17 09:38:26;;;;;;;2.80;0.77;;;20.10;99.90;;;;;;4840716;29;20049;-91
2023/08/17 09:40:56;;;;;;;1.02;0.60;;;20.20;99.90;;;;;;4851641;29;20037;-85
2023/08/17 09:43:22;;;;;;;2.05;0.55;;;20.40;99.90;;;;;;4828805;29;20053;-88
2023/08/17 09:45:49;;;;;;;2.97;0.60;;;20.50;99.90;;;;;;4832483;29;20045;-88
2023/08/17 09:48:19;;;;;;;2.22;0.60;;;20.80;99.90;;;;;;4832173;29;20169;-88
2023/08/17 09:50:48;;;;;;;3.22;0.40;;;20.90;99.90;;;;;;4831462;29;20061;-88
2023/08/17 09:53:16;;;;;;;1.90;0.73;;;21.00;99.90;;;;;;4833511;29;20048;-85
2023/08/17 09:55:43;;;;;;;4.13;0.70;;;21.20;99.90;;;;;;4832644;29;20141;-87
2023/08/17 09:58:14;;;;;;;3.08;0.60;;;21.30;99.90;;;;;;4857090;29;20040;-85
2023/08/17 10:00:46;;;;;;;2.60;0.70;;;21.40;99.90;;;;;;4855240;29;20052;-87
2023/08/17 10:03:14;;;;;;;1.52;0.50;;;21.30;99.90;;;;;;4855166;29;20052;-89
2023/08/17 10:05:42;;;;;;;5.10;0.90;;;21.30;99.90;;;;;;4832712;29;20088;-88
2023/08/17 10:08:10;;;;;;;1.90;0.52;;;21.30;99.90;;;;;;4846044;29;20041;-90
2023/08/17 10:10:40;;;;;;;3.05;0.40;;;21.30;99.90;;;;;;4831329;29;20053;-88
2023/08/17 10:13:31;;;;;;;1.38;0.63;;;21.40;99.90;;;;;;4826899;29;20412;-88
2023/08/17 10:16:06;;;;;;;3.22;0.70;;;21.40;99.90;;;;;;4830679;29;20057;-86
2023/08/17 10:18:42;;;;;;;1.73;0.50;;;21.40;99.90;;;;;;4824757;29;20037;-86
2023/08/17 10:21:17;;;;;;;2.08;0.55;;;21.10;99.90;;;;;;4832466;29;20048;-88
2023/08/17 10:23:45;;;;;;;3.47;0.70;;;21.00;99.90;;;;;;4842481;29;20049;-88
2023/08/17 10:26:11;;;;;;;2.03;0.52;;;20.90;99.90;;;;;;4827318;29;20050;-86
2023/08/17 10:28:38;;;;;;;3.35;0.60;;;21.00;99.90;;;;;;4831732;29;20053;-89
2023/08/17 10:31:05;;;;;;;3.35;0.85;;;21.20;99.90;;;;;;4801114;29;20080;-89
2023/08/17 10:33:31;;;;;;;2.08;0.57;;;21.40;99.90;;;;;;4802646;29;20049;-91
2023/08/17 10:35:58;;;;;;;4.50;0.70;;;21.60;99.90;;;;;;4832393;29;20068;-86
2023/08/17 10:38:24;;;;;;;3.83;0.63;;;21.60;99.90;;;;;;4844989;29;20569;-86
2023/08/17 10:41:13;;;;;;;2.73;0.50;;;21.60;99.90;;;;;;4828114;29;20042;-88
2023/08/17 10:43:55;;;;;;;1.27;0.57;;;21.70;99.90;;;;;;4828085;29;20033;-86
2023/08/17 10:46:21;;;;;;;4.18;0.88;;;21.70;99.90;;;;;;4829126;29;20080;-89
2023/08/17 10:48:46;;;;;;;2.05;0.60;;;21.70;99.90;;;;;;4844082;29;20098;-85
2023/08/17 10:51:16;;;;;;;1.98;0.52;;;22.00;99.90;;;;;;4828919;29;20049;-89
2023/08/17 10:53:45;;;;;;;2.40;0.55;;;22.30;99.90;;;;;;4837632;29;20114;-90
2023/08/17 10:56:13;;;;;;;2.08;0.70;;;22.50;99.90;;;;;;4829898;29;20723;-90
2023/08/17 10:58:41;;;;;;;2.55;0.82;;;22.50;99.90;;;;;;4844376;29;20042;-87
2023/08/17 11:01:07;;;;;;;1.95;0.80;;;22.50;99.90;;;;;;4829996;29;20049;-89
2023/08/17 11:03:33;;;;;;;1.25;0.40;;;22.60;99.90;;;;;;4852555;29;20434;-85
2023/08/17 11:06:14;;;;;;;3.40;1.40;;;22.80;99.90;;;;;;4827043;29;20133;-88
2023/08/17 11:08:55;;;;;;;3.80;0.75;;;23.00;99.90;;;;;;4831044;29;20732;-91
2023/08/17 11:11:22;;;;;;;2.22;0.68;;;23.00;99.90;;;;;;4838233;29;20490;-85
2023/08/17 11:13:49;;;;;;;3.90;1.02;;;23.00;99.90;;;;;;4837562;29;20053;-84
2023/08/17 11:16:19;;;;;;;2.35;0.68;;;22.90;99.90;;;;;;4845426;29;20324;-91
2023/08/17 11:18:46;;;;;;;2.30;0.80;;;22.70;99.90;;;;;;4844445;29;20520;-89
2023/08/17 11:21:14;;;;;;;3.47;0.98;;;22.50;99.90;;;;;;4830285;29;20042;-85
2023/08/17 11:23:40;;;;;;;3.00;0.70;;;22.30;99.90;;;;;;4810596;29;20513;-89
2023/08/17 11:26:07;;;;;;;2.33;0.80;;;22.20;99.90;;;;;;4814820;29;20045;-90
2023/08/17 11:28:37;;;;;;;2.45;0.90;;;22.10;99.90;;;;;;4832361;29;20052;-90
2023/08/17 11:31:05;;;;;;;2.75;0.82;;;22.00;99.90;;;;;;4817161;29;20114;-90
2023/08/17 11:33:32;;;;;;;3.28;1.00;;;22.00;99.90;;;;;;4830278;29;20060;-93
2023/08/17 11:35:59;;;;;;;2.50;0.80;;;22.00;99.90;;;;;;4829025;29;20042;-89
2023/08/17 11:38:26;;;;;;;3.42;0.95;;;22.00;99.90;;;;;;4812379;29;20045;-88
2023/08/17 11:40:52;;;;;;;2.97;0.80;;;22.00;99.90;;;;;;4828267;29;20041;-89
2023/08/17 11:43:20;;;;;;;2.03;0.80;;;21.90;99.90;;;;;;4851284;29;20043;-89
2023/08/17 11:45:46;;;;;;;2.50;0.93;;;21.90;99.90;;;;;;4859686;29;20045;-87
2023/08/17 11:48:12;;;;;;;2.00;0.80;;;21.70;99.90;;;;;;4814185;29;20494;-89
2023/08/17 11:50:39;;;;;;;2.35;0.70;;;21.60;99.90;;;;;;4860651;29;20064;-88
2023/08/17 11:53:05;;;;;;;1.98;0.70;;;21.50;99.90;;;;;;4849095;29;20057;-90
2023/08/17 11:55:31;;;;;;;1.67;0.63;;;21.60;99.90;;;;;;4828727;29;20513;-88
2023/08/17 11:57:57;;;;;;;2.33;0.70;;;21.90;99.90;;;;;;4844023;29;20124;-87
2023/08/17 12:00:24;;;;;;;2.30;0.77;;;22.00;99.90;;;;;;4834320;29;20041;-86
2023/08/17 12:02:52;;;;;;;3.65;0.70;;;22.20;99.90;;;;;;4844062;29;20041;-89
2023/08/17 12:05:28;;;;;;;2.28;0.80;;;22.30;99.90;;;;;;4827393;29;20046;-83
2023/08/17 12:07:54;;;;;;;3.47;0.70;;;22.40;99.90;;;;;;4842802;29;20052;-88
2023/08/17 12:10:22;;;;;;;1.95;0.90;;;22.40;99.90;;;;;;4839491;29;20509;-88
2023/08/17 12:12:48;;;;;;;1.80;0.70;;;22.40;99.90;;;;;;4826495;29;20045;-87
2023/08/17 12:15:16;;;;;;;1.55;0.60;;;22.30;99.90;;;;;;4835375;29;20056;-85
2023/08/17 12:17:48;;;;;;;1.95;0.80;;;22.10;99.90;;;;;;4828452;29;20124;-89
2023/08/17 12:20:19;;;;;;;2.63;0.77;;;22.10;99.90;;;;;;4859666;29;20045;-87
2023/08/17 12:22:48;;;;;;;1.65;0.80;;;22.10;99.90;;;;;;4813661;29;20044;-92
2023/08/17 12:25:15;;;;;;;2.40;1.05;;;22.10;99.90;;;;;;4825731;29;20108;-88
2023/08/17 12:27:41;;;;;;;1.63;0.80;;;22.20;99.90;;;;;;4832810;29;20055;-91
2023/08/17 12:30:28;;;;;;;2.72;0.93;;;22.20;99.90;;;;;;4833170;29;20076;-87
2023/08/17 12:32:54;;;;;;;3.05;1.02;;;22.10;99.90;;;;;;4832490;29;20052;-90
2023/08/17 12:35:21;;;;;;;4.15;0.85;;;22.00;99.90;;;;;;4813732;29;20050;-94
2023/08/17 12:37:48;;;;;;;2.35;0.90;;;21.90;99.90;;;;;;4817852;29;20033;-88
2023/08/17 12:40:13;;;;;;;2.90;0.80;;;21.90;99.90;;;;;;4828493;29;20132;-87
2023/08/17 12:42:39;;;;;;;2.42;0.90;;;21.80;99.90;;;;;;4857508;29;20124;-87
2023/08/17 12:45:05;;;;;;;2.13;0.98;;;21.60;99.90;;;;;;4843876;29;20061;-87
2023/08/17 12:47:32;;;;;;;2.10;0.88;;;21.50;99.90;;;;;;4826062;29;20049;-87